Terminal Aerodrome Forecast
Issued by NWS Denver/Boulder, CO

Home | Current Version | Previous Version | Text Only | Print | Product List | Glossary On
Versions: 1 2 3 4 5 6 7 8 9 10 11 12 13 14 15 16 17 18 19 20 21 22 23 24 25 26 27 28 29 30 31 32 33 34 35 36 37 38 39 40 41 42 43 44 45 46 47 48 49 50
407
FTUS45 KBOU 250117 AAA
TAFDEN
TAF AMD
KDEN 250117Z 2501/2606 08015KT P6SM VCTS SCT090CB BKN140
      TEMPO 2501/2503 08015G25KT
     FM250300 15012KT P6SM FEW090 BKN140
     FM250800 18008KT P6SM SCT140
     FM251800 12010KT P6SM SCT100
     FM252300 15012G20KT P6SM SCT080 BKN140=

USA.gov is the U.S. government's official web portal to all federal, state and local government web resources and services.